sensor_id;sensor_type;location;lat;lon;timestamp;P1;durP1;ratioP1;P2;durP2;ratioP2
4857;SDS011;58975;51.978;8.472;2023-05-10T00:01:57;16.90;;;9.82;;
4857;SDS011;58975;51.978;8.472;2023-05-10T00:06:54;14.13;;;10.20;;
4857;SDS011;58975;51.978;8.472;2023-05-10T00:11:50;12.63;;;9.35;;
4857;SDS011;58975;51.978;8.472;2023-05-10T00:16:47;12.05;;;8.98;;
4857;SDS011;58975;51.978;8.472;2023-05-10T00:21:43;12.95;;;8.82;;
4857;SDS011;58975;51.978;8.472;2023-05-10T00:26:39;13.48;;;9.38;;
4857;SDS011;58975;51.978;8.472;2023-05-10T00:31:38;12.00;;;8.25;;
4857;SDS011;58975;51.978;8.472;2023-05-10T00:36:34;17.55;;;9.40;;
4857;SDS011;58975;51.978;8.472;2023-05-10T00:41:31;13.85;;;9.98;;
4857;SDS011;58975;51.978;8.472;2023-05-10T00:46:30;12.73;;;10.00;;
4857;SDS011;58975;51.978;8.472;2023-05-10T00:51:27;14.20;;;10.05;;
4857;SDS011;58975;51.978;8.472;2023-05-10T00:56:23;18.50;;;12.27;;
4857;SDS011;58975;51.978;8.472;2023-05-10T01:01:21;17.73;;;11.05;;
4857;SDS011;58975;51.978;8.472;2023-05-10T01:06:18;14.73;;;9.98;;
4857;SDS011;58975;51.978;8.472;2023-05-10T01:11:15;13.65;;;9.45;;
4857;SDS011;58975;51.978;8.472;2023-05-10T01:16:11;17.92;;;11.60;;
4857;SDS011;58975;51.978;8.472;2023-05-10T01:21:16;15.98;;;10.35;;
4857;SDS011;58975;51.978;8.472;2023-05-10T01:31:52;15.88;;;11.30;;
4857;SDS011;58975;51.978;8.472;2023-05-10T01:37:02;17.02;;;10.93;;
4857;SDS011;58975;51.978;8.472;2023-05-10T01:42:10;18.20;;;10.93;;
4857;SDS011;58975;51.978;8.472;2023-05-10T01:48:11;22.58;;;11.45;;
4857;SDS011;58975;51.978;8.472;2023-05-10T01:52:53;16.95;;;10.02;;
4857;SDS011;58975;51.978;8.472;2023-05-10T01:57:56;12.65;;;8.40;;
4857;SDS011;58975;51.978;8.472;2023-05-10T02:03:00;13.65;;;8.50;;
4857;SDS011;58975;51.978;8.472;2023-05-10T02:08:01;14.13;;;8.43;;
4857;SDS011;58975;51.978;8.472;2023-05-10T02:13:02;16.27;;;8.13;;
4857;SDS011;58975;51.978;8.472;2023-05-10T02:17:59;14.13;;;7.93;;
4857;SDS011;58975;51.978;8.472;2023-05-10T02:22:57;13.88;;;8.60;;
4857;SDS011;58975;51.978;8.472;2023-05-10T02:27:55;16.83;;;10.47;;
4857;SDS011;58975;51.978;8.472;2023-05-10T02:37:50;16.60;;;9.35;;
4857;SDS011;58975;51.978;8.472;2023-05-10T02:42:48;20.10;;;9.73;;
4857;SDS011;58975;51.978;8.472;2023-05-10T02:47:48;22.00;;;11.25;;
4857;SDS011;58975;51.978;8.472;2023-05-10T02:52:49;21.98;;;10.85;;
4857;SDS011;58975;51.978;8.472;2023-05-10T02:57:51;26.95;;;13.18;;
4857;SDS011;58975;51.978;8.472;2023-05-10T03:02:50;25.27;;;13.50;;
4857;SDS011;58975;51.978;8.472;2023-05-10T03:07:47;29.60;;;13.65;;
4857;SDS011;58975;51.978;8.472;2023-05-10T03:18:12;27.02;;;13.57;;
4857;SDS011;58975;51.978;8.472;2023-05-10T03:28:32;27.25;;;13.63;;
4857;SDS011;58975;51.978;8.472;2023-05-10T03:33:30;25.45;;;13.38;;
4857;SDS011;58975;51.978;8.472;2023-05-10T03:38:27;22.77;;;11.53;;
4857;SDS011;58975;51.978;8.472;2023-05-10T03:43:25;26.88;;;12.43;;
4857;SDS011;58975;51.978;8.472;2023-05-10T03:48:22;17.10;;;9.30;;
4857;SDS011;58975;51.978;8.472;2023-05-10T03:53:18;20.45;;;9.50;;
4857;SDS011;58975;51.978;8.472;2023-05-10T03:58:15;11.35;;;6.57;;
4857;SDS011;58975;51.978;8.472;2023-05-10T04:03:12;5.15;;;3.63;;
4857;SDS011;58975;51.978;8.472;2023-05-10T04:08:08;3.55;;;3.20;;
4857;SDS011;58975;51.978;8.472;2023-05-10T04:13:05;3.22;;;2.83;;
4857;SDS011;58975;51.978;8.472;2023-05-10T04:18:02;3.88;;;2.78;;
4857;SDS011;58975;51.978;8.472;2023-05-10T04:22:58;4.05;;;2.70;;
4857;SDS011;58975;51.978;8.472;2023-05-10T04:27:54;3.92;;;3.03;;
4857;SDS011;58975;51.978;8.472;2023-05-10T04:32:51;3.92;;;3.42;;
4857;SDS011;58975;51.978;8.472;2023-05-10T04:37:47;3.60;;;3.30;;
4857;SDS011;58975;51.978;8.472;2023-05-10T04:42:44;7.40;;;4.30;;
4857;SDS011;58975;51.978;8.472;2023-05-10T04:47:40;6.82;;;4.35;;
4857;SDS011;58975;51.978;8.472;2023-05-10T04:52:36;7.65;;;5.30;;
4857;SDS011;58975;51.978;8.472;2023-05-10T04:57:33;10.20;;;5.35;;
4857;SDS011;58975;51.978;8.472;2023-05-10T05:02:29;6.70;;;4.93;;
4857;SDS011;58975;51.978;8.472;2023-05-10T05:07:26;9.00;;;4.93;;
4857;SDS011;58975;51.978;8.472;2023-05-10T05:12:23;7.43;;;5.15;;
4857;SDS011;58975;51.978;8.472;2023-05-10T05:17:19;8.85;;;5.38;;
4857;SDS011;58975;51.978;8.472;2023-05-10T05:22:16;6.95;;;4.90;;
4857;SDS011;58975;51.978;8.472;2023-05-10T05:27:14;7.90;;;4.97;;
4857;SDS011;58975;51.978;8.472;2023-05-10T05:32:10;6.32;;;4.55;;
4857;SDS011;58975;51.978;8.472;2023-05-10T05:37:07;7.53;;;4.82;;
4857;SDS011;58975;51.978;8.472;2023-05-10T05:42:09;7.95;;;4.45;;
4857;SDS011;58975;51.978;8.472;2023-05-10T05:47:06;5.97;;;4.40;;
4857;SDS011;58975;51.978;8.472;2023-05-10T05:52:03;5.88;;;3.92;;
4857;SDS011;58975;51.978;8.472;2023-05-10T05:57:00;6.18;;;3.90;;
4857;SDS011;58975;51.978;8.472;2023-05-10T06:01:56;5.80;;;3.95;;
4857;SDS011;58975;51.978;8.472;2023-05-10T06:06:53;7.40;;;4.47;;
4857;SDS011;58975;51.978;8.472;2023-05-10T06:11:49;8.80;;;5.35;;
4857;SDS011;58975;51.978;8.472;2023-05-10T06:16:46;8.23;;;4.72;;
4857;SDS011;58975;51.978;8.472;2023-05-10T06:21:42;6.95;;;4.70;;
4857;SDS011;58975;51.978;8.472;2023-05-10T06:26:39;9.02;;;4.55;;
4857;SDS011;58975;51.978;8.472;2023-05-10T06:31:35;8.30;;;5.20;;
4857;SDS011;58975;51.978;8.472;2023-05-10T06:36:32;6.10;;;5.05;;
4857;SDS011;58975;51.978;8.472;2023-05-10T06:41:28;7.22;;;5.18;;
4857;SDS011;58975;51.978;8.472;2023-05-10T06:46:24;10.27;;;6.03;;
4857;SDS011;58975;51.978;8.472;2023-05-10T06:51:21;8.95;;;6.05;;
4857;SDS011;58975;51.978;8.472;2023-05-10T06:56:18;12.68;;;6.50;;
4857;SDS011;58975;51.978;8.472;2023-05-10T07:01:14;9.50;;;6.95;;
4857;SDS011;58975;51.978;8.472;2023-05-10T07:06:11;8.05;;;5.80;;
4857;SDS011;58975;51.978;8.472;2023-05-10T07:11:26;7.07;;;5.50;;
4857;SDS011;58975;51.978;8.472;2023-05-10T07:16:22;9.05;;;5.75;;
4857;SDS011;58975;51.978;8.472;2023-05-10T07:21:19;10.23;;;7.50;;
4857;SDS011;58975;51.978;8.472;2023-05-10T07:26:16;11.07;;;6.78;;
4857;SDS011;58975;51.978;8.472;2023-05-10T07:31:12;11.38;;;7.60;;
4857;SDS011;58975;51.978;8.472;2023-05-10T07:36:09;15.20;;;7.90;;
4857;SDS011;58975;51.978;8.472;2023-05-10T07:41:05;14.98;;;8.45;;
4857;SDS011;58975;51.978;8.472;2023-05-10T07:46:01;24.23;;;9.38;;
4857;SDS011;58975;51.978;8.472;2023-05-10T07:50:58;19.50;;;8.55;;
4857;SDS011;58975;51.978;8.472;2023-05-10T07:55:56;22.17;;;9.27;;
4857;SDS011;58975;51.978;8.472;2023-05-10T08:00:54;19.98;;;10.60;;
4857;SDS011;58975;51.978;8.472;2023-05-10T08:05:50;21.05;;;10.88;;
4857;SDS011;58975;51.978;8.472;2023-05-10T08:14:34;25.88;;;10.30;;
4857;SDS011;58975;51.978;8.472;2023-05-10T08:19:32;23.98;;;12.02;;
4857;SDS011;58975;51.978;8.472;2023-05-10T08:24:29;23.50;;;12.13;;
4857;SDS011;58975;51.978;8.472;2023-05-10T08:29:25;32.22;;;13.27;;
4857;SDS011;58975;51.978;8.472;2023-05-10T08:34:25;27.15;;;12.93;;
4857;SDS011;58975;51.978;8.472;2023-05-10T08:39:23;25.80;;;12.50;;
4857;SDS011;58975;51.978;8.472;2023-05-10T08:44:26;24.27;;;11.88;;
4857;SDS011;58975;51.978;8.472;2023-05-10T08:49:22;28.83;;;13.15;;
4857;SDS011;58975;51.978;8.472;2023-05-10T08:59:17;34.10;;;15.40;;
4857;SDS011;58975;51.978;8.472;2023-05-10T09:04:14;35.25;;;16.33;;
4857;SDS011;58975;51.978;8.472;2023-05-10T09:09:10;34.53;;;17.13;;
4857;SDS011;58975;51.978;8.472;2023-05-10T09:14:08;26.57;;;12.27;;
4857;SDS011;58975;51.978;8.472;2023-05-10T09:19:05;37.90;;;17.50;;
4857;SDS011;58975;51.978;8.472;2023-05-10T09:24:04;40.00;;;17.65;;
4857;SDS011;58975;51.978;8.472;2023-05-10T09:29:04;31.25;;;16.27;;
4857;SDS011;58975;51.978;8.472;2023-05-10T09:34:01;28.27;;;15.30;;
4857;SDS011;58975;51.978;8.472;2023-05-10T09:38:57;26.38;;;15.05;;
4857;SDS011;58975;51.978;8.472;2023-05-10T09:43:56;31.83;;;14.98;;
4857;SDS011;58975;51.978;8.472;2023-05-10T09:48:52;30.00;;;14.77;;
4857;SDS011;58975;51.978;8.472;2023-05-10T09:54:08;29.55;;;13.70;;
4857;SDS011;58975;51.978;8.472;2023-05-10T09:59:07;22.57;;;12.37;;
4857;SDS011;58975;51.978;8.472;2023-05-10T10:04:08;20.05;;;11.63;;
4857;SDS011;58975;51.978;8.472;2023-05-10T10:09:06;21.83;;;11.20;;
4857;SDS011;58975;51.978;8.472;2023-05-10T10:14:04;15.65;;;9.73;;
4857;SDS011;58975;51.978;8.472;2023-05-10T10:23:04;16.08;;;8.85;;
4857;SDS011;58975;51.978;8.472;2023-05-10T10:28:13;15.52;;;9.68;;
4857;SDS011;58975;51.978;8.472;2023-05-10T10:33:28;14.98;;;9.05;;
4857;SDS011;58975;51.978;8.472;2023-05-10T10:43:43;12.43;;;7.22;;
4857;SDS011;58975;51.978;8.472;2023-05-10T10:48:41;11.77;;;6.63;;
4857;SDS011;58975;51.978;8.472;2023-05-10T10:53:43;8.95;;;6.32;;
4857;SDS011;58975;51.978;8.472;2023-05-10T10:58:39;10.57;;;6.65;;
4857;SDS011;58975;51.978;8.472;2023-05-10T11:03:36;6.75;;;4.60;;
4857;SDS011;58975;51.978;8.472;2023-05-10T11:08:33;16.30;;;8.13;;
4857;SDS011;58975;51.978;8.472;2023-05-10T11:13:39;9.35;;;5.72;;
4857;SDS011;58975;51.978;8.472;2023-05-10T11:18:36;15.23;;;7.22;;
4857;SDS011;58975;51.978;8.472;2023-05-10T11:28:46;7.03;;;4.18;;
4857;SDS011;58975;51.978;8.472;2023-05-10T11:33:44;10.73;;;5.95;;
4857;SDS011;58975;51.978;8.472;2023-05-10T11:38:45;10.48;;;5.93;;
4857;SDS011;58975;51.978;8.472;2023-05-10T11:43:41;11.07;;;6.07;;
4857;SDS011;58975;51.978;8.472;2023-05-10T11:48:39;11.32;;;6.32;;
4857;SDS011;58975;51.978;8.472;2023-05-10T11:53:36;11.27;;;5.95;;
4857;SDS011;58975;51.978;8.472;2023-05-10T11:58:33;10.45;;;6.60;;
4857;SDS011;58975;51.978;8.472;2023-05-10T12:03:29;12.97;;;7.17;;
4857;SDS011;58975;51.978;8.472;2023-05-10T12:08:27;15.07;;;8.40;;
4857;SDS011;58975;51.978;8.472;2023-05-10T12:13:25;18.48;;;8.98;;
4857;SDS011;58975;51.978;8.472;2023-05-10T12:18:22;19.95;;;9.90;;
4857;SDS011;58975;51.978;8.472;2023-05-10T12:23:22;18.73;;;9.73;;
4857;SDS011;58975;51.978;8.472;2023-05-10T12:28:19;17.70;;;10.18;;
4857;SDS011;58975;51.978;8.472;2023-05-10T12:33:15;20.00;;;10.40;;
4857;SDS011;58975;51.978;8.472;2023-05-10T12:43:23;18.38;;;10.43;;
4857;SDS011;58975;51.978;8.472;2023-05-10T12:48:19;20.20;;;9.40;;
4857;SDS011;58975;51.978;8.472;2023-05-10T12:53:16;20.23;;;9.40;;
4857;SDS011;58975;51.978;8.472;2023-05-10T12:58:12;21.05;;;9.70;;
4857;SDS011;58975;51.978;8.472;2023-05-10T13:03:29;17.15;;;8.20;;
4857;SDS011;58975;51.978;8.472;2023-05-10T13:08:25;20.92;;;10.68;;
4857;SDS011;58975;51.978;8.472;2023-05-10T13:13:22;18.20;;;9.13;;
4857;SDS011;58975;51.978;8.472;2023-05-10T13:18:18;15.52;;;9.75;;
4857;SDS011;58975;51.978;8.472;2023-05-10T13:23:15;15.65;;;9.15;;
4857;SDS011;58975;51.978;8.472;2023-05-10T13:28:11;9.98;;;5.38;;
4857;SDS011;58975;51.978;8.472;2023-05-10T13:33:07;9.55;;;5.90;;
4857;SDS011;58975;51.978;8.472;2023-05-10T13:38:04;14.20;;;6.45;;
4857;SDS011;58975;51.978;8.472;2023-05-10T13:43:00;10.85;;;6.85;;
4857;SDS011;58975;51.978;8.472;2023-05-10T13:47:56;15.85;;;7.57;;
4857;SDS011;58975;51.978;8.472;2023-05-10T13:52:53;14.18;;;7.43;;
4857;SDS011;58975;51.978;8.472;2023-05-10T13:57:49;14.10;;;7.10;;
4857;SDS011;58975;51.978;8.472;2023-05-10T14:02:46;14.02;;;7.53;;
4857;SDS011;58975;51.978;8.472;2023-05-10T14:07:42;10.50;;;7.18;;
4857;SDS011;58975;51.978;8.472;2023-05-10T14:12:38;13.23;;;7.47;;
4857;SDS011;58975;51.978;8.472;2023-05-10T14:17:35;13.25;;;6.70;;
4857;SDS011;58975;51.978;8.472;2023-05-10T14:22:31;13.85;;;6.97;;
4857;SDS011;58975;51.978;8.472;2023-05-10T14:27:28;13.23;;;7.00;;
4857;SDS011;58975;51.978;8.472;2023-05-10T14:32:24;13.95;;;6.60;;
4857;SDS011;58975;51.978;8.472;2023-05-10T14:37:21;11.73;;;6.68;;
4857;SDS011;58975;51.978;8.472;2023-05-10T14:42:17;9.73;;;6.28;;
4857;SDS011;58975;51.978;8.472;2023-05-10T14:47:13;10.07;;;6.53;;
4857;SDS011;58975;51.978;8.472;2023-05-10T14:52:10;8.55;;;6.32;;
4857;SDS011;58975;51.978;8.472;2023-05-10T15:02:04;11.63;;;6.80;;
4857;SDS011;58975;51.978;8.472;2023-05-10T15:07:02;13.52;;;7.15;;
4857;SDS011;58975;51.978;8.472;2023-05-10T15:11:58;10.60;;;6.30;;
4857;SDS011;58975;51.978;8.472;2023-05-10T15:16:54;11.55;;;6.78;;
4857;SDS011;58975;51.978;8.472;2023-05-10T15:21:51;13.40;;;6.90;;
4857;SDS011;58975;51.978;8.472;2023-05-10T15:26:47;10.35;;;6.97;;
4857;SDS011;58975;51.978;8.472;2023-05-10T15:31:44;11.05;;;6.75;;
4857;SDS011;58975;51.978;8.472;2023-05-10T15:36:40;12.75;;;6.95;;
4857;SDS011;58975;51.978;8.472;2023-05-10T15:41:37;13.77;;;7.55;;
4857;SDS011;58975;51.978;8.472;2023-05-10T15:46:33;16.30;;;7.80;;
4857;SDS011;58975;51.978;8.472;2023-05-10T15:51:30;13.23;;;7.95;;
4857;SDS011;58975;51.978;8.472;2023-05-10T15:56:26;17.90;;;10.63;;
4857;SDS011;58975;51.978;8.472;2023-05-10T16:01:23;24.15;;;10.88;;
4857;SDS011;58975;51.978;8.472;2023-05-10T16:06:20;22.08;;;11.40;;
4857;SDS011;58975;51.978;8.472;2023-05-10T16:11:16;19.13;;;10.35;;
4857;SDS011;58975;51.978;8.472;2023-05-10T16:16:13;21.90;;;10.02;;
4857;SDS011;58975;51.978;8.472;2023-05-10T16:21:09;23.23;;;11.00;;
4857;SDS011;58975;51.978;8.472;2023-05-10T16:26:05;18.35;;;9.02;;
4857;SDS011;58975;51.978;8.472;2023-05-10T16:31:02;16.77;;;9.15;;
4857;SDS011;58975;51.978;8.472;2023-05-10T16:35:58;14.18;;;8.35;;
4857;SDS011;58975;51.978;8.472;2023-05-10T16:40:55;15.80;;;8.35;;
4857;SDS011;58975;51.978;8.472;2023-05-10T16:45:52;22.55;;;10.60;;
4857;SDS011;58975;51.978;8.472;2023-05-10T16:50:49;17.52;;;9.93;;
4857;SDS011;58975;51.978;8.472;2023-05-10T16:55:45;14.77;;;8.88;;
4857;SDS011;58975;51.978;8.472;2023-05-10T17:00:42;11.70;;;7.30;;
4857;SDS011;58975;51.978;8.472;2023-05-10T17:05:38;22.08;;;8.70;;
4857;SDS011;58975;51.978;8.472;2023-05-10T17:10:38;14.27;;;8.90;;
4857;SDS011;58975;51.978;8.472;2023-05-10T17:15:35;20.02;;;9.65;;
4857;SDS011;58975;51.978;8.472;2023-05-10T17:20:33;14.80;;;8.40;;
4857;SDS011;58975;51.978;8.472;2023-05-10T17:25:29;13.65;;;7.32;;
4857;SDS011;58975;51.978;8.472;2023-05-10T17:30:25;12.70;;;6.80;;
4857;SDS011;58975;51.978;8.472;2023-05-10T17:35:23;11.85;;;7.38;;
4857;SDS011;58975;51.978;8.472;2023-05-10T17:40:20;9.38;;;5.50;;
4857;SDS011;58975;51.978;8.472;2023-05-10T17:45:16;10.23;;;5.38;;
4857;SDS011;58975;51.978;8.472;2023-05-10T17:50:13;8.10;;;5.05;;
4857;SDS011;58975;51.978;8.472;2023-05-10T17:55:10;6.40;;;3.97;;
4857;SDS011;58975;51.978;8.472;2023-05-10T18:00:07;7.88;;;4.72;;
4857;SDS011;58975;51.978;8.472;2023-05-10T18:05:05;6.33;;;3.50;;
4857;SDS011;58975;51.978;8.472;2023-05-10T18:10:02;12.68;;;4.57;;
4857;SDS011;58975;51.978;8.472;2023-05-10T18:14:58;10.55;;;4.30;;
4857;SDS011;58975;51.978;8.472;2023-05-10T18:19:55;10.05;;;4.50;;
4857;SDS011;58975;51.978;8.472;2023-05-10T18:24:51;8.77;;;5.25;;
4857;SDS011;58975;51.978;8.472;2023-05-10T18:29:48;6.32;;;4.68;;
4857;SDS011;58975;51.978;8.472;2023-05-10T18:34:44;6.03;;;4.80;;
4857;SDS011;58975;51.978;8.472;2023-05-10T18:39:41;8.32;;;5.18;;
4857;SDS011;58975;51.978;8.472;2023-05-10T18:44:37;8.18;;;5.18;;
4857;SDS011;58975;51.978;8.472;2023-05-10T18:49:33;11.40;;;6.93;;
4857;SDS011;58975;51.978;8.472;2023-05-10T18:54:30;9.25;;;6.20;;
4857;SDS011;58975;51.978;8.472;2023-05-10T18:59:26;9.13;;;5.75;;
4857;SDS011;58975;51.978;8.472;2023-05-10T19:04:23;9.27;;;6.32;;
4857;SDS011;58975;51.978;8.472;2023-05-10T19:09:19;11.50;;;6.85;;
4857;SDS011;58975;51.978;8.472;2023-05-10T19:14:16;10.40;;;6.28;;
4857;SDS011;58975;51.978;8.472;2023-05-10T19:19:13;10.30;;;6.80;;
4857;SDS011;58975;51.978;8.472;2023-05-10T19:24:10;16.33;;;7.93;;
4857;SDS011;58975;51.978;8.472;2023-05-10T19:29:07;13.93;;;7.55;;
4857;SDS011;58975;51.978;8.472;2023-05-10T19:34:03;17.25;;;7.90;;
4857;SDS011;58975;51.978;8.472;2023-05-10T19:39:01;16.17;;;8.10;;
4857;SDS011;58975;51.978;8.472;2023-05-10T19:43:58;15.27;;;8.00;;
4857;SDS011;58975;51.978;8.472;2023-05-10T19:48:55;11.13;;;7.07;;
4857;SDS011;58975;51.978;8.472;2023-05-10T19:53:51;16.65;;;8.73;;
4857;SDS011;58975;51.978;8.472;2023-05-10T19:58:47;15.30;;;8.25;;
4857;SDS011;58975;51.978;8.472;2023-05-10T20:03:44;11.55;;;7.45;;
4857;SDS011;58975;51.978;8.472;2023-05-10T20:08:41;11.25;;;7.50;;
4857;SDS011;58975;51.978;8.472;2023-05-10T20:13:37;14.05;;;8.43;;
4857;SDS011;58975;51.978;8.472;2023-05-10T20:18:33;11.68;;;8.63;;
4857;SDS011;58975;51.978;8.472;2023-05-10T20:23:30;12.60;;;8.57;;
4857;SDS011;58975;51.978;8.472;2023-05-10T20:28:26;17.42;;;9.65;;
4857;SDS011;58975;51.978;8.472;2023-05-10T20:33:24;14.17;;;9.00;;
4857;SDS011;58975;51.978;8.472;2023-05-10T20:38:20;14.02;;;8.60;;
4857;SDS011;58975;51.978;8.472;2023-05-10T20:43:17;16.55;;;9.20;;
4857;SDS011;58975;51.978;8.472;2023-05-10T20:48:14;14.15;;;8.52;;
4857;SDS011;58975;51.978;8.472;2023-05-10T20:53:11;13.93;;;8.55;;
4857;SDS011;58975;51.978;8.472;2023-05-10T20:58:09;19.42;;;9.13;;
4857;SDS011;58975;51.978;8.472;2023-05-10T21:03:06;14.05;;;8.70;;
4857;SDS011;58975;51.978;8.472;2023-05-10T21:13:10;18.08;;;10.02;;
4857;SDS011;58975;51.978;8.472;2023-05-10T21:18:06;17.88;;;10.55;;
4857;SDS011;58975;51.978;8.472;2023-05-10T21:23:03;21.90;;;11.50;;
4857;SDS011;58975;51.978;8.472;2023-05-10T21:27:59;25.95;;;12.93;;
4857;SDS011;58975;51.978;8.472;2023-05-10T21:32:56;23.63;;;12.48;;
4857;SDS011;58975;51.978;8.472;2023-05-10T21:37:55;25.05;;;12.50;;
4857;SDS011;58975;51.978;8.472;2023-05-10T21:42:51;24.95;;;13.15;;
4857;SDS011;58975;51.978;8.472;2023-05-10T21:47:48;18.45;;;11.43;;
4857;SDS011;58975;51.978;8.472;2023-05-10T21:52:45;24.90;;;12.55;;
4857;SDS011;58975;51.978;8.472;2023-05-10T21:57:41;26.05;;;12.65;;
4857;SDS011;58975;51.978;8.472;2023-05-10T22:02:38;21.45;;;11.98;;
4857;SDS011;58975;51.978;8.472;2023-05-10T22:07:35;31.37;;;12.53;;
4857;SDS011;58975;51.978;8.472;2023-05-10T22:12:31;19.33;;;11.70;;
4857;SDS011;58975;51.978;8.472;2023-05-10T22:17:28;18.58;;;11.35;;
4857;SDS011;58975;51.978;8.472;2023-05-10T22:22:24;25.13;;;14.15;;
4857;SDS011;58975;51.978;8.472;2023-05-10T22:27:21;29.45;;;14.55;;
4857;SDS011;58975;51.978;8.472;2023-05-10T22:32:17;28.10;;;14.32;;
4857;SDS011;58975;51.978;8.472;2023-05-10T22:37:14;33.22;;;16.60;;
4857;SDS011;58975;51.978;8.472;2023-05-10T22:42:13;33.65;;;17.65;;
4857;SDS011;58975;51.978;8.472;2023-05-10T22:47:09;33.33;;;17.55;;
4857;SDS011;58975;51.978;8.472;2023-05-10T22:52:06;41.47;;;19.20;;
4857;SDS011;58975;51.978;8.472;2023-05-10T22:57:03;35.75;;;16.90;;
4857;SDS011;58975;51.978;8.472;2023-05-10T23:01:59;41.72;;;18.05;;
4857;SDS011;58975;51.978;8.472;2023-05-10T23:06:56;37.60;;;19.00;;
4857;SDS011;58975;51.978;8.472;2023-05-10T23:11:53;34.95;;;17.73;;
4857;SDS011;58975;51.978;8.472;2023-05-10T23:16:49;39.00;;;18.92;;
4857;SDS011;58975;51.978;8.472;2023-05-10T23:21:46;37.75;;;17.23;;
4857;SDS011;58975;51.978;8.472;2023-05-10T23:26:42;40.72;;;19.85;;
4857;SDS011;58975;51.978;8.472;2023-05-10T23:31:41;43.53;;;20.27;;
4857;SDS011;58975;51.978;8.472;2023-05-10T23:36:40;45.50;;;21.75;;
4857;SDS011;58975;51.978;8.472;2023-05-10T23:41:37;34.97;;;18.00;;
4857;SDS011;58975;51.978;8.472;2023-05-10T23:46:33;36.63;;;17.92;;
4857;SDS011;58975;51.978;8.472;2023-05-10T23:51:30;29.73;;;16.05;;
4857;SDS011;58975;51.978;8.472;2023-05-10T23:56:27;40.80;;;19.17;;
